Time;durP1;ratioP1;P1;durP2;ratioP2;P2;SDS_P1;SDS_P2;PMS_P1;PMS_P2;Temp;Humidity;BMP_temperature;BMP_pressure;BME280_temperature;BME280_humidity;BME280_pressure;Samples;Min_cycle;Max_cycle;Signal;HPM_P1;HPM_P2
2021/11/06 00:02:09;;;;;;;4.22;3.70;;;;;;;9.71;85.01;101989.13;5034216;28;20484;-78
2021/11/06 00:04:36;;;;;;;4.55;3.33;;;;;;;9.72;85.08;101990.75;5050847;28;20405;-78
2021/11/06 00:07:03;;;;;;;5.70;3.35;;;;;;;9.71;84.92;101991.91;5057756;28;20055;-77
2021/11/06 00:09:30;;;;;;;4.25;3.85;;;;;;;9.70;84.95;101995.78;5055228;28;20147;-78
2021/11/06 00:11:58;;;;;;;9.13;3.60;;;;;;;9.67;84.97;101979.81;5033801;28;20033;-77
2021/11/06 00:14:25;;;;;;;5.75;3.83;;;;;;;9.66;85.08;101994.78;5052112;28;20086;-81
2021/11/06 00:16:53;;;;;;;6.10;3.75;;;;;;;9.64;84.91;101983.19;5041708;28;20048;-79
2021/11/06 00:19:20;;;;;;;5.90;4.07;;;;;;;9.66;85.10;101984.50;5041517;28;20044;-77
2021/11/06 00:21:47;;;;;;;5.20;3.58;;;;;;;9.65;84.92;101971.00;5051812;28;20065;-78
2021/11/06 00:24:14;;;;;;;5.05;3.97;;;;;;;9.65;85.02;101976.53;5041907;28;20473;-77
2021/11/06 00:26:40;;;;;;;4.90;3.67;;;;;;;9.65;84.98;101968.25;5041576;28;20538;-78
2021/11/06 00:29:07;;;;;;;7.70;3.88;;;;;;;9.67;85.02;101958.50;5041676;28;20072;-78
2021/11/06 00:31:34;;;;;;;5.97;3.85;;;;;;;9.69;84.73;101966.47;5044597;28;20081;-77
2021/11/06 00:34:01;;;;;;;5.32;3.45;;;;;;;9.66;84.73;101962.38;5045351;28;21630;-77
2021/11/06 00:36:28;;;;;;;5.38;3.67;;;;;;;9.66;84.85;101967.91;5043531;28;20128;-78
2021/11/06 00:38:56;;;;;;;3.83;3.33;;;;;;;9.66;84.82;101956.84;5056947;28;20036;-78
2021/11/06 00:41:23;;;;;;;6.90;3.55;;;;;;;9.67;85.05;101952.16;5035942;28;20141;-77
2021/11/06 00:43:54;;;;;;;6.75;3.72;;;;;;;9.66;84.82;101948.56;5058126;28;20148;-77
2021/11/06 00:46:21;;;;;;;6.40;3.33;;;;;;;9.63;84.70;101959.44;5058753;28;20040;-77
2021/11/06 00:48:48;;;;;;;4.75;2.78;;;;;;;9.63;85.02;101954.72;5044560;28;20115;-77
2021/11/06 00:51:15;;;;;;;5.78;4.03;;;;;;;9.62;84.82;101960.56;5063002;28;20039;-77
2021/11/06 00:53:42;;;;;;;6.80;3.42;;;;;;;9.60;84.71;101952.59;5062728;28;20049;-77
2021/11/06 00:56:08;;;;;;;6.55;3.60;;;;;;;9.59;84.56;101939.06;5062405;28;20072;-77
2021/11/06 00:58:36;;;;;;;4.63;3.45;;;;;;;9.58;84.55;101948.50;5065444;28;20075;-78
2021/11/06 01:01:03;;;;;;;8.35;3.45;;;;;;;9.57;84.84;101947.66;5042047;28;20060;-78
2021/11/06 01:03:29;;;;;;;7.95;3.35;;;;;;;9.58;84.72;101943.75;5046341;28;20117;-77
2021/11/06 01:05:56;;;;;;;5.22;3.25;;;;;;;9.58;84.53;101937.44;5041627;28;20052;-77
2021/11/06 01:08:23;;;;;;;5.82;3.95;;;;;;;9.57;84.65;101933.03;5064240;28;20037;-77
2021/11/06 01:10:50;;;;;;;4.30;3.70;;;;;;;9.57;84.64;101936.59;5054470;28;20045;-77
2021/11/06 01:13:18;;;;;;;19.10;6.00;;;;;;;9.57;84.72;101933.84;5062896;28;20045;-77
2021/11/06 01:15:45;;;;;;;7.43;3.60;;;;;;;9.56;84.91;101934.13;5058959;28;20068;-77
2021/11/06 01:18:12;;;;;;;7.78;3.95;;;;;;;9.57;84.62;101941.31;5045350;28;20450;-78
2021/11/06 01:20:40;;;;;;;7.03;3.90;;;;;;;9.57;84.74;101930.25;5064497;28;20048;-77
2021/11/06 01:23:07;;;;;;;6.70;4.70;;;;;;;9.56;84.72;101925.84;5060222;28;20110;-77
2021/11/06 01:25:34;;;;;;;5.57;3.90;;;;;;;9.56;84.61;101929.44;5042925;28;20400;-77
2021/11/06 01:28:00;;;;;;;5.38;3.63;;;;;;;9.56;84.66;101923.91;5061180;28;20072;-77
2021/11/06 01:30:27;;;;;;;6.57;3.97;;;;;;;9.56;84.72;101932.19;5065797;28;20048;-77
2021/11/06 01:32:54;;;;;;;5.68;4.38;;;;;;;9.58;84.80;101926.38;5066753;28;20119;-78
2021/11/06 01:35:21;;;;;;;9.05;5.10;;;;;;;9.58;85.12;101931.91;5059682;28;20519;-78
2021/11/06 01:37:49;;;;;;;7.28;4.60;;;;;;;9.59;85.15;101928.00;5061594;28;20064;-77
2021/11/06 01:40:19;;;;;;;7.50;4.53;;;;;;;9.56;85.33;101920.31;5064236;28;20049;-78
2021/11/06 01:42:47;;;;;;;8.70;4.97;;;;;;;9.55;85.49;101916.75;5060853;28;20504;-77
2021/11/06 01:45:17;;;;;;;7.05;4.70;;;;;;;9.53;85.67;101912.66;5061235;28;20072;-77
2021/11/06 01:47:44;;;;;;;9.55;6.13;;;;;;;9.52;85.59;101899.97;5047385;28;20076;-77
2021/11/06 01:50:13;;;;;;;7.07;5.47;;;;;;;9.50;85.70;101896.69;5058231;28;20072;-78
2021/11/06 01:52:40;;;;;;;9.25;5.82;;;;;;;9.48;85.88;101888.69;5063445;28;20064;-77
2021/11/06 01:55:08;;;;;;;10.40;5.80;;;;;;;9.43;85.96;101885.22;5040548;28;20072;-77
2021/11/06 01:57:35;;;;;;;9.35;5.95;;;;;;;9.41;85.99;101887.47;5062103;28;20036;-77
2021/11/06 02:00:12;;;;;;;7.60;5.82;;;;;;;9.35;86.16;101886.78;5063304;28;20563;-77
2021/11/06 02:02:41;;;;;;;9.35;6.00;;;;;;;9.35;86.15;101885.94;5049972;28;20072;-77
2021/11/06 02:05:09;;;;;;;9.55;5.00;;;;;;;9.35;86.18;101880.41;5038201;28;20139;-78
2021/11/06 02:07:36;;;;;;;17.23;7.20;;;;;;;9.33;85.98;101877.16;5055985;28;20067;-77
2021/11/06 02:10:05;;;;;;;8.82;5.32;;;;;;;9.33;86.15;101871.63;5057102;28;20037;-77
2021/11/06 02:12:32;;;;;;;12.00;5.43;;;;;;;9.33;85.93;101868.88;5057357;28;20119;-78
2021/11/06 02:15:00;;;;;;;7.10;4.70;;;;;;;9.31;86.36;101866.44;5062582;28;20071;-77
2021/11/06 02:17:26;;;;;;;7.68;5.30;;;;;;;9.31;86.23;101865.59;5063340;28;20139;-78
2021/11/06 02:19:54;;;;;;;5.85;3.88;;;;;;;9.31;85.97;101862.84;5059043;28;20036;-77
2021/11/06 02:22:21;;;;;;;6.50;4.63;;;;;;;9.32;86.05;101861.72;5062923;28;20124;-78
2021/11/06 02:24:49;;;;;;;6.13;3.90;;;;;;;9.33;86.17;101858.63;5061698;28;20127;-77
2021/11/06 02:27:15;;;;;;;3.53;3.13;;;;;;;9.33;86.09;101850.34;5062384;28;20136;-77
2021/11/06 02:29:42;;;;;;;6.18;2.83;;;;;;;9.35;86.04;101850.03;5063866;28;20044;-78
2021/11/06 02:32:09;;;;;;;5.60;3.08;;;;;;;9.36;86.04;101851.66;5063743;28;20079;-77
2021/11/06 02:34:36;;;;;;;6.50;2.72;;;;;;;9.34;85.93;101835.41;5045193;28;20040;-78
2021/11/06 02:37:04;;;;;;;4.90;2.50;;;;;;;9.35;85.99;101834.25;5057890;28;20140;-78
2021/11/06 02:39:31;;;;;;;3.30;2.42;;;;;;;9.36;85.69;101848.91;5063699;28;20144;-77
2021/11/06 02:42:04;;;;;;;2.38;1.83;;;;;;;9.36;85.53;101829.56;5059325;28;20064;-77
2021/11/06 02:44:32;;;;;;;4.68;2.03;;;;;;;9.36;85.40;101830.38;5044962;28;20056;-77
2021/11/06 02:46:59;;;;;;;2.78;2.00;;;;;;;9.36;85.42;101835.91;5058315;28;20049;-77
2021/11/06 02:49:26;;;;;;;2.15;1.55;;;;;;;9.36;85.19;101832.31;5063931;28;20136;-77
2021/11/06 02:51:54;;;;;;;3.10;2.03;;;;;;;9.35;85.14;101828.72;5065659;28;20125;-77
2021/11/06 02:54:21;;;;;;;3.72;1.63;;;;;;;9.36;85.22;101830.38;5057676;28;20090;-78
2021/11/06 02:56:48;;;;;;;5.47;1.70;;;;;;;9.34;85.33;101812.47;5044336;28;20045;-78
2021/11/06 02:59:15;;;;;;;3.17;1.65;;;;;;;9.33;85.54;101810.84;5061197;28;20036;-77
2021/11/06 03:01:43;;;;;;;4.43;1.85;;;;;;;9.33;85.35;101822.72;5063958;28;20123;-78
2021/11/06 03:04:11;;;;;;;2.72;1.33;;;;;;;9.34;85.22;101820.78;5060088;28;20492;-77
2021/11/06 03:06:39;;;;;;;7.03;1.65;;;;;;;9.34;85.26;101801.41;5044969;28;20066;-77
2021/11/06 03:09:07;;;;;;;2.28;1.50;;;;;;;9.37;85.29;101803.56;5060054;28;20520;-77
2021/11/06 03:11:35;;;;;;;2.65;1.17;;;;;;;9.36;85.21;101796.41;5053694;28;20123;-78
2021/11/06 03:14:05;;;;;;;2.30;1.55;;;;;;;9.36;85.01;101788.94;5050488;28;20049;-77
2021/11/06 03:16:35;;;;;;;3.35;1.17;;;;;;;9.34;85.14;101785.66;5039664;28;20136;-78
2021/11/06 03:19:02;;;;;;;3.60;1.30;;;;;;;9.33;85.06;101780.44;5056238;28;20076;-78
2021/11/06 03:21:29;;;;;;;4.85;1.50;;;;;;;9.32;85.11;101778.81;5064518;28;20554;-77
2021/11/06 03:23:56;;;;;;;6.18;1.50;;;;;;;9.36;85.17;101768.75;5061228;28;20040;-77
2021/11/06 03:26:23;;;;;;;3.05;1.48;;;;;;;9.34;84.98;101776.56;5059469;28;20048;-78
2021/11/06 03:28:50;;;;;;;2.78;1.20;;;;;;;9.33;84.96;101775.72;5056025;28;20124;-77
2021/11/06 03:31:17;;;;;;;1.73;1.15;;;;;;;9.35;85.11;101772.63;5042752;28;20087;-78
2021/11/06 03:33:44;;;;;;;1.73;1.38;;;;;;;9.37;84.90;101773.16;5053843;28;20044;-77
2021/11/06 03:36:11;;;;;;;4.25;1.23;;;;;;;9.37;84.84;101773.16;5034358;28;20048;-78
2021/11/06 03:38:38;;;;;;;1.23;0.90;;;;;;;9.37;84.70;101765.66;5055919;28;20041;-77
2021/11/06 03:41:05;;;;;;;2.35;0.80;;;;;;;9.35;84.45;101767.94;5056924;28;20052;-78
2021/11/06 03:43:32;;;;;;;6.60;1.02;;;;;;;9.36;84.31;101757.69;5051635;28;20131;-78
2021/11/06 03:45:59;;;;;;;2.42;1.10;;;;;;;9.36;84.20;101750.22;5054337;28;20124;-78
2021/11/06 03:48:26;;;;;;;2.53;1.30;;;;;;;9.37;84.24;101754.63;5037288;28;20076;-77
2021/11/06 03:50:53;;;;;;;4.38;1.23;;;;;;;9.38;84.34;101749.91;5059588;28;20045;-77
2021/11/06 03:53:20;;;;;;;0.95;0.85;;;;;;;9.38;84.35;101747.16;5062760;28;20131;-77
2021/11/06 03:55:47;;;;;;;1.02;0.85;;;;;;;9.39;84.42;101737.72;5054901;28;20094;-77
2021/11/06 03:58:14;;;;;;;4.10;1.30;;;;;;;9.40;84.14;101737.41;5051468;28;20553;-78
2021/11/06 04:00:40;;;;;;;1.45;0.82;;;;;;;9.40;84.00;101744.91;5052081;28;20084;-77
2021/11/06 04:03:07;;;;;;;1.92;0.85;;;;;;;9.38;83.97;101738.84;5050495;28;20040;-77
2021/11/06 04:05:34;;;;;;;1.42;0.80;;;;;;;9.39;83.74;101740.50;5061121;28;20083;-77
2021/11/06 04:08:01;;;;;;;1.17;0.60;;;;;;;9.40;83.90;101731.09;5054115;28;20071;-77
2021/11/06 04:10:28;;;;;;;1.50;1.00;;;;;;;9.38;83.93;101725.03;5041902;28;20044;-77
2021/11/06 04:12:55;;;;;;;2.97;1.20;;;;;;;9.35;84.06;101717.38;5064309;28;20079;-78
2021/11/06 04:15:21;;;;;;;1.05;0.90;;;;;;;9.33;83.99;101719.63;5063038;28;20037;-78
2021/11/06 04:17:48;;;;;;;1.70;1.05;;;;;;;9.33;84.17;101711.34;5063336;28;20124;-78
2021/11/06 04:20:15;;;;;;;2.38;1.08;;;;;;;9.32;83.88;101701.44;5055863;28;20092;-77
2021/11/06 04:22:42;;;;;;;1.80;1.17;;;;;;;9.29;83.91;101697.34;5057726;28;20036;-77
2021/11/06 04:25:09;;;;;;;4.50;1.00;;;;;;;9.28;83.99;101700.41;5062277;28;20056;-78
2021/11/06 04:27:36;;;;;;;2.15;0.90;;;;;;;9.27;83.96;101709.81;5057301;28;20036;-78
2021/11/06 04:30:04;;;;;;;2.00;0.90;;;;;;;9.25;83.99;101696.34;5062444;28;20068;-78
2021/11/06 04:32:31;;;;;;;4.43;0.93;;;;;;;9.23;84.16;101708.84;5056250;28;20037;-78
2021/11/06 04:34:58;;;;;;;2.58;0.93;;;;;;;9.22;84.25;101705.25;5056825;28;21000;-77
2021/11/06 04:37:25;;;;;;;1.95;1.08;;;;;;;9.22;84.24;101712.72;5063429;28;20050;-78
2021/11/06 04:39:52;;;;;;;3.38;1.65;;;;;;;9.21;84.16;101711.09;5047532;28;20036;-78
2021/11/06 04:42:19;;;;;;;1.23;0.90;;;;;;;9.17;84.01;101700.66;5046141;28;20131;-78
2021/11/06 04:44:46;;;;;;;0.52;0.52;;;;;;;9.15;84.26;101700.16;5040754;28;20127;-78
2021/11/06 04:47:12;;;;;;;1.25;0.80;;;;;;;9.14;84.36;101697.69;5058194;28;20153;-77
2021/11/06 04:49:39;;;;;;;0.63;0.63;;;;;;;9.10;84.08;101692.00;5037891;28;20037;-78
2021/11/06 04:52:07;;;;;;;2.42;0.70;;;;;;;9.10;84.30;101703.06;5038462;28;20053;-77
2021/11/06 04:54:34;;;;;;;2.90;0.63;;;;;;;9.09;84.24;101686.78;5057809;28;20484;-78
2021/11/06 04:57:01;;;;;;;2.88;0.70;;;;;;;9.11;84.23;101690.84;5063611;28;20072;-77
2021/11/06 04:59:28;;;;;;;1.25;0.63;;;;;;;9.11;84.42;101696.38;5060973;28;20072;-77
2021/11/06 05:01:56;;;;;;;0.80;0.57;;;;;;;9.10;84.37;101683.72;5061255;28;20077;-78
2021/11/06 05:04:23;;;;;;;1.15;0.50;;;;;;;9.12;83.98;101691.69;5055782;28;20137;-77
2021/11/06 05:06:50;;;;;;;1.23;0.70;;;;;;;9.11;84.51;101685.34;5062960;28;20076;-78
2021/11/06 05:09:18;;;;;;;0.43;0.30;;;;;;;9.14;84.23;101683.88;5061168;28;20072;-78
2021/11/06 05:11:45;;;;;;;2.05;0.50;;;;;;;9.12;84.44;101684.22;5062052;28;20121;-78
2021/11/06 05:14:12;;;;;;;0.75;0.50;;;;;;;9.13;84.38;101682.28;5055079;28;20137;-77
2021/11/06 05:16:39;;;;;;;1.77;0.40;;;;;;;9.14;84.41;101683.88;5043257;28;20082;-78
2021/11/06 05:19:06;;;;;;;0.85;0.50;;;;;;;9.18;84.44;101679.38;5060466;28;20527;-78
2021/11/06 05:21:37;;;;;;;3.63;0.60;;;;;;;9.22;84.41;101674.84;5058015;28;20115;-78
2021/11/06 05:24:05;;;;;;;1.58;0.60;;;;;;;9.27;84.33;101665.63;5052715;28;20571;-78
2021/11/06 05:26:34;;;;;;;1.02;0.60;;;;;;;9.27;84.17;101665.63;5060482;28;20122;-77
2021/11/06 05:29:04;;;;;;;2.22;0.85;;;;;;;9.25;84.19;101652.13;5056964;28;20156;-78
2021/11/06 05:31:31;;;;;;;0.52;0.47;;;;;;;9.25;84.11;101635.53;5061675;28;20048;-77
2021/11/06 05:34:00;;;;;;;0.55;0.55;;;;;;;9.27;84.20;101649.03;5059701;28;20056;-78
2021/11/06 05:36:27;;;;;;;2.13;0.50;;;;;;;9.26;84.18;101650.19;5059350;28;20441;-78
2021/11/06 05:38:55;;;;;;;1.67;0.50;;;;;;;9.24;83.99;101644.16;5037288;28;20071;-78
2021/11/06 05:41:22;;;;;;;1.00;0.40;;;;;;;9.24;84.04;101638.63;5042503;28;20525;-78
2021/11/06 05:43:49;;;;;;;0.45;0.45;;;;;;;9.21;83.96;101639.25;5040435;28;20602;-78
2021/11/06 05:46:16;;;;;;;0.90;0.47;;;;;;;9.19;83.97;101618.28;5036877;28;20076;-78
2021/11/06 05:48:43;;;;;;;0.75;0.40;;;;;;;9.21;83.85;101628.22;5054683;28;20075;-77
2021/11/06 05:51:12;;;;;;;1.02;0.60;;;;;;;9.21;83.93;101628.22;5061904;28;20574;-77
2021/11/06 05:53:39;;;;;;;2.38;0.88;;;;;;;9.21;83.84;101606.94;5060077;28;20045;-78
2021/11/06 05:56:06;;;;;;;1.83;0.40;;;;;;;9.24;83.74;101611.00;5061393;28;20040;-78
2021/11/06 05:58:33;;;;;;;1.42;0.40;;;;;;;9.25;83.71;101596.88;5040069;28;20045;-78
2021/11/06 06:01:00;;;;;;;0.38;0.25;;;;;;;9.28;83.56;101603.69;5040683;28;20040;-78
2021/11/06 06:03:27;;;;;;;1.95;0.15;;;;;;;9.28;83.41;101595.41;5054758;28;20041;-78
2021/11/06 06:05:54;;;;;;;0.82;0.40;;;;;;;9.29;83.17;101592.34;5016167;28;20648;-77
2021/11/06 06:08:21;;;;;;;0.28;0.22;;;;;;;9.28;83.40;101600.94;5052265;28;20131;-78
2021/11/06 06:10:47;;;;;;;1.30;0.40;;;;;;;9.31;83.59;101606.66;5058344;28;20048;-78
2021/11/06 06:13:14;;;;;;;0.30;0.30;;;;;;;9.33;83.41;101601.63;5054865;28;20102;-77
2021/11/06 06:15:41;;;;;;;2.45;0.47;;;;;;;9.36;83.10;101589.13;5057590;28;20039;-77
2021/11/06 06:18:08;;;;;;;0.43;0.40;;;;;;;9.37;83.21;101588.00;5056853;28;20524;-78
2021/11/06 06:20:35;;;;;;;2.50;0.45;;;;;;;9.38;83.20;101584.09;5044302;28;20040;-78
2021/11/06 06:23:02;;;;;;;0.95;0.32;;;;;;;9.36;83.22;101570.59;5040541;28;20126;-77
2021/11/06 06:25:29;;;;;;;3.00;0.45;;;;;;;9.39;83.15;101567.22;5024749;28;20131;-77
2021/11/06 06:27:56;;;;;;;0.88;0.45;;;;;;;9.40;83.17;101568.81;5046296;28;20069;-78
2021/11/06 06:30:23;;;;;;;0.68;0.68;;;;;;;9.39;83.23;101560.88;5039594;28;22277;-78
2021/11/06 06:32:50;;;;;;;0.75;0.55;;;;;;;9.37;83.23;101579.72;5057147;28;20151;-78
2021/11/06 06:35:17;;;;;;;0.30;0.30;;;;;;;9.37;83.11;101579.72;5041918;28;20136;-77
2021/11/06 06:37:43;;;;;;;1.90;0.20;;;;;;;9.39;83.11;101577.44;5059209;28;20231;-78
2021/11/06 06:40:11;;;;;;;0.20;0.15;;;;;;;9.42;82.97;101580.41;5065385;28;20068;-78
2021/11/06 06:42:39;;;;;;;1.00;0.32;;;;;;;9.46;82.81;101566.75;5053453;28;20135;-77
2021/11/06 06:45:06;;;;;;;0.47;0.17;;;;;;;9.48;82.77;101568.06;5050290;28;20128;-78
2021/11/06 06:47:33;;;;;;;1.17;0.15;;;;;;;9.51;82.79;101566.59;5036251;28;20076;-77
2021/11/06 06:50:00;;;;;;;0.75;0.40;;;;;;;9.53;82.67;101564.34;5061207;28;20120;-78
2021/11/06 06:52:27;;;;;;;0.60;0.20;;;;;;;9.55;82.68;101549.09;5059570;28;20556;-78
2021/11/06 06:54:54;;;;;;;2.47;0.30;;;;;;;9.58;82.48;101545.66;5055175;28;20044;-78
2021/11/06 06:57:22;;;;;;;2.50;0.28;;;;;;;9.61;82.50;101547.78;5057426;28;20041;-78
2021/11/06 06:59:49;;;;;;;1.92;0.50;;;;;;;9.62;82.42;101545.84;5056970;28;20110;-78
2021/11/06 07:02:16;;;;;;;1.98;0.30;;;;;;;9.62;82.39;101523.72;5052229;28;20047;-78
2021/11/06 07:04:42;;;;;;;4.57;1.85;;;;;;;9.62;82.48;101534.78;5057164;28;20073;-77
2021/11/06 07:07:10;;;;;;;0.65;0.38;;;;;;;9.63;82.07;101541.94;5041077;28;20131;-78
2021/11/06 07:09:37;;;;;;;0.30;0.10;;;;;;;9.63;82.36;101531.72;5054295;28;20560;-78
2021/11/06 07:12:05;;;;;;;0.60;0.20;;;;;;;9.64;82.14;101526.97;5057063;28;20048;-78
2021/11/06 07:14:32;;;;;;;0.17;0.17;;;;;;;9.63;82.24;101522.59;5058283;28;20080;-78
2021/11/06 07:16:59;;;;;;;0.75;0.28;;;;;;;9.65;82.28;101531.38;5043030;28;20441;-78
2021/11/06 07:19:26;;;;;;;0.43;0.20;;;;;;;9.61;82.19;101506.31;5055946;28;20045;-78
2021/11/06 07:21:53;;;;;;;1.25;0.32;;;;;;;9.62;82.33;101519.00;5061404;28;20079;-77
2021/11/06 07:24:20;;;;;;;0.40;0.25;;;;;;;9.62;82.50;101515.44;5052350;28;20465;-78
2021/11/06 07:26:47;;;;;;;1.23;0.38;;;;;;;9.63;82.53;101508.78;5055919;28;20127;-77
2021/11/06 07:29:14;;;;;;;1.08;0.25;;;;;;;9.61;82.53;101511.06;5062744;28;20052;-78
2021/11/06 07:31:41;;;;;;;1.38;0.30;;;;;;;9.61;82.31;101516.59;5037362;28;20152;-77
2021/11/06 07:34:08;;;;;;;0.45;0.43;;;;;;;9.61;82.68;101527.63;5059114;28;20152;-78
2021/11/06 07:36:34;;;;;;;0.90;0.32;;;;;;;9.62;82.73;101518.19;5058323;28;20050;-78
2021/11/06 07:39:02;;;;;;;0.50;0.20;;;;;;;9.62;82.76;101529.25;5054883;28;20123;-78
2021/11/06 07:41:29;;;;;;;2.58;0.40;;;;;;;9.62;82.77;101519.00;5058643;28;20094;-78
2021/11/06 07:43:56;;;;;;;4.60;0.40;;;;;;;9.63;82.84;101514.31;5037118;28;20090;-78
2021/11/06 07:46:23;;;;;;;1.48;0.47;;;;;;;9.62;82.96;101505.19;5060307;28;20070;-78
2021/11/06 07:48:50;;;;;;;0.25;0.25;;;;;;;9.63;82.81;101519.84;5060107;28;20320;-78
2021/11/06 07:51:17;;;;;;;0.57;0.30;;;;;;;9.64;82.84;101504.84;5036979;28;20184;-78
2021/11/06 07:53:44;;;;;;;0.20;0.20;;;;;;;9.63;82.74;101514.31;5057776;28;20052;-78
2021/11/06 07:56:11;;;;;;;2.25;0.43;;;;;;;9.62;82.81;101491.38;5058468;28;20441;-78
2021/11/06 07:58:38;;;;;;;0.90;0.38;;;;;;;9.66;82.90;101491.56;5057570;28;20037;-78
2021/11/06 08:01:05;;;;;;;0.93;0.43;;;;;;;9.66;83.01;101492.34;5035423;28;20122;-78
2021/11/06 08:03:32;;;;;;;1.35;0.20;;;;;;;9.66;82.85;101497.06;5054423;28;20051;-78
2021/11/06 08:05:59;;;;;;;0.32;0.20;;;;;;;9.69;82.94;101490.88;5063709;28;20049;-78
2021/11/06 08:08:25;;;;;;;0.43;0.43;;;;;;;9.69;82.95;101468.75;5060467;28;20123;-78
2021/11/06 08:10:53;;;;;;;0.45;0.20;;;;;;;9.70;82.92;101449.09;5036776;28;20391;-78
2021/11/06 08:13:20;;;;;;;0.82;0.73;;;;;;;9.71;83.02;101450.75;5044622;28;20090;-78
2021/11/06 08:15:47;;;;;;;0.20;0.20;;;;;;;9.73;82.85;101425.53;5058432;28;20045;-78
2021/11/06 08:18:15;;;;;;;0.55;0.25;;;;;;;9.76;82.83;101427.66;5062036;28;20047;-78
2021/11/06 08:20:42;;;;;;;0.10;0.10;;;;;;;9.79;82.78;101429.78;5058757;28;20102;-77
2021/11/06 08:23:09;;;;;;;1.17;0.25;;;;;;;9.80;82.73;101437.72;5044644;28;20079;-78
2021/11/06 08:25:36;;;;;;;0.90;0.30;;;;;;;9.84;82.65;101410.25;5037201;28;20116;-78
2021/11/06 08:28:03;;;;;;;0.88;0.30;;;;;;;9.86;82.74;101416.25;5048173;28;20049;-77
2021/11/06 08:30:34;;;;;;;4.93;0.50;;;;;;;9.87;82.56;101415.13;5036561;28;20077;-78
2021/11/06 08:33:01;;;;;;;2.53;0.30;;;;;;;9.90;82.63;101413.69;5057750;28;20072;-78
2021/11/06 08:35:30;;;;;;;1.85;0.22;;;;;;;9.91;82.44;101410.56;5050349;28;20044;-78
2021/11/06 08:37:58;;;;;;;1.92;0.20;;;;;;;9.91;82.21;101399.50;5057566;28;20094;-78
2021/11/06 08:40:25;;;;;;;1.17;0.40;;;;;;;9.90;82.20;101381.28;5057886;28;20047;-78
2021/11/06 08:42:53;;;;;;;2.05;0.10;;;;;;;9.87;82.30;101370.88;5052799;28;20052;-78
2021/11/06 08:45:21;;;;;;;0.25;0.25;;;;;;;9.86;82.27;101373.97;5059608;28;20579;-78
2021/11/06 08:47:48;;;;;;;1.00;0.20;;;;;;;9.85;82.21;101353.00;5055085;28;20132;-78
2021/11/06 08:50:19;;;;;;;1.00;0.40;;;;;;;9.84;82.06;101351.34;5055385;28;20094;-78
2021/11/06 08:52:47;;;;;;;1.30;0.20;;;;;;;9.83;82.34;101356.06;5061635;28;20096;-78
2021/11/06 08:55:15;;;;;;;0.95;0.20;;;;;;;9.83;82.37;101358.84;5040458;28;20109;-78
2021/11/06 08:57:43;;;;;;;3.22;0.40;;;;;;;9.85;82.43;101353.00;5062305;28;20115;-78
2021/11/06 09:00:18;;;;;;;0.73;0.20;;;;;;;9.86;82.42;101336.06;5065726;28;20032;-78
2021/11/06 09:02:45;;;;;;;4.03;0.40;;;;;;;9.92;82.39;101347.78;5041416;28;20065;-78
2021/11/06 09:05:12;;;;;;;0.30;0.20;;;;;;;9.97;82.24;101359.50;5054043;28;20116;-78
2021/11/06 09:07:39;;;;;;;1.42;0.20;;;;;;;10.04;82.37;101336.84;5052509;28;20115;-78
2021/11/06 09:10:15;;;;;;;0.80;0.30;;;;;;;10.11;82.47;101337.97;5014714;28;20055;-78
2021/11/06 09:12:43;;;;;;;1.17;0.45;;;;;;;10.20;82.20;101338.00;5047934;28;20083;-83
2021/11/06 09:15:10;;;;;;;0.40;0.10;;;;;;;10.24;81.84;101320.44;5039115;28;20127;-83
2021/11/06 09:17:37;;;;;;;0.88;0.32;;;;;;;10.25;81.75;101310.97;5063978;28;20097;-82
2021/11/06 09:20:06;;;;;;;1.92;0.20;;;;;;;10.26;81.62;101306.25;5055675;28;20103;-82
2021/11/06 09:22:35;;;;;;;0.85;0.28;;;;;;;10.24;81.56;101325.16;5045696;28;20068;-82
2021/11/06 09:25:04;;;;;;;0.90;0.32;;;;;;;10.25;81.75;101322.03;5054208;28;20059;-81
2021/11/06 09:27:31;;;;;;;1.75;0.20;;;;;;;10.30;81.64;101319.09;5062977;28;20101;-82
2021/11/06 09:29:58;;;;;;;3.00;0.30;;;;;;;10.35;81.50;101315.38;5058678;28;20127;-82
2021/11/06 09:32:25;;;;;;;2.58;0.38;;;;;;;10.43;81.19;101297.09;5045508;28;20457;-82
2021/11/06 09:34:52;;;;;;;1.52;0.88;;;;;;;10.47;81.23;101303.59;5055858;28;20045;-82
2021/11/06 09:37:19;;;;;;;4.40;0.20;;;;;;;10.51;81.35;101290.72;5037548;28;20140;-83
2021/11/06 09:39:46;;;;;;;1.02;0.68;;;;;;;10.53;81.10;101282.91;5058240;28;20064;-83
2021/11/06 09:42:14;;;;;;;3.95;0.30;;;;;;;10.55;81.02;101286.94;5054067;28;20048;-83
2021/11/06 09:44:42;;;;;;;3.03;0.63;;;;;;;10.59;81.08;101281.56;5059752;28;20049;-83
2021/11/06 09:47:12;;;;;;;2.15;0.20;;;;;;;10.59;81.06;101281.56;5043350;28;20080;-82
2021/11/06 09:49:40;;;;;;;1.58;0.20;;;;;;;10.59;81.08;101279.59;5058708;28;20033;-82
2021/11/06 09:52:08;;;;;;;7.45;0.60;;;;;;;10.61;81.24;101268.19;5061398;28;20094;-79
2021/11/06 09:54:35;;;;;;;0.30;0.20;;;;;;;10.60;81.33;101256.31;5060885;28;20128;-79
2021/11/06 09:57:02;;;;;;;0.77;0.38;;;;;;;10.63;81.22;101252.06;5057163;28;20095;-79
2021/11/06 09:59:31;;;;;;;0.88;0.25;;;;;;;10.66;81.41;101248.63;5051652;28;20036;-82
2021/11/06 10:02:00;;;;;;;2.55;0.20;;;;;;;10.70;81.36;101232.97;5055332;28;20075;-82
2021/11/06 10:04:29;;;;;;;3.40;0.30;;;;;;;10.76;81.57;101239.94;5043644;28;20067;-83
2021/11/06 10:07:19;;;;;;;1.75;0.20;;;;;;;10.78;81.35;101221.84;5063700;28;20048;-86
2021/11/06 10:09:58;;;;;;;0.85;0.32;;;;;;;10.81;81.36;101193.47;5060019;28;20068;-84
2021/11/06 10:12:26;;;;;;;0.28;0.28;;;;;;;10.84;81.43;101178.13;5061717;28;21978;-82
2021/11/06 10:15:07;;;;;;;0.43;0.20;;;;;;;10.86;81.23;101175.84;5050661;28;20840;-79
2021/11/06 10:17:35;;;;;;;2.73;0.50;;;;;;;10.86;81.27;101154.50;5057508;28;20036;-78
2021/11/06 10:20:28;;;;;;;2.83;0.20;;;;;;;10.87;81.09;101139.50;5060602;28;20098;-81
2021/11/06 10:22:59;;;;;;;2.05;0.30;;;;;;;10.92;81.29;101124.63;5060024;28;20551;-78
2021/11/06 10:25:30;;;;;;;0.80;0.30;;;;;;;11.05;81.31;101128.28;5059038;28;20044;-78
2021/11/06 10:28:03;;;;;;;2.13;0.20;;;;;;;11.19;80.87;101137.94;5061780;28;20098;-78
2021/11/06 10:30:42;;;;;;;2.05;0.22;;;;;;;11.33;80.88;101146.75;5025055;28;20052;-78
2021/11/06 10:33:17;;;;;;;1.52;0.80;;;;;;;11.48;80.21;101125.91;5058307;28;20047;-77
2021/11/06 10:35:58;;;;;;;1.02;0.40;;;;;;;11.53;80.13;101134.03;5038430;28;20078;-78
2021/11/06 10:38:28;;;;;;;1.67;0.40;;;;;;;11.58;80.42;101137.38;5056768;28;20140;-79
2021/11/06 10:40:59;;;;;;;2.08;0.63;;;;;;;11.63;80.30;101128.84;5053130;28;20102;-78
2021/11/06 10:43:28;;;;;;;1.83;0.50;;;;;;;11.67;80.30;101128.16;5052817;28;20084;-78
2021/11/06 10:45:58;;;;;;;0.95;0.30;;;;;;;11.68;79.97;101143.63;5043048;28;20045;-78
2021/11/06 10:48:35;;;;;;;4.15;0.55;;;;;;;11.67;80.03;101139.25;5035839;28;20095;-78
2021/11/06 10:51:12;;;;;;;2.55;0.40;;;;;;;11.70;79.86;101164.38;5057664;28;20071;-79
2021/11/06 10:53:48;;;;;;;1.55;0.40;;;;;;;11.72;79.94;101130.75;5051517;28;20064;-82
2021/11/06 10:56:45;;;;;;;0.68;0.50;;;;;;;11.79;79.77;101142.91;5019535;28;20496;-77
2021/11/06 10:59:17;;;;;;;4.95;0.55;;;;;;;11.90;79.55;101126.63;5041613;28;20131;-78
2021/11/06 11:01:45;;;;;;;;;;;;;;;11.94;79.14;101124.78;5049013;28;20095;-78
2021/11/06 11:04:18;;;;;;;3.72;0.90;;;;;;;12.06;79.37;101133.09;5039346;28;20016;-78
2021/11/06 11:06:57;;;;;;;2.17;0.30;;;;;;;12.16;79.15;101135.44;5039309;28;20044;-78
2021/11/06 11:09:33;;;;;;;3.63;0.40;;;;;;;12.16;78.81;101127.09;5042658;28;20136;-77
2021/11/06 11:12:02;;;;;;;0.93;0.55;;;;;;;12.19;79.03;101148.63;5055738;28;20040;-77
2021/11/06 11:14:31;;;;;;;1.98;0.38;;;;;;;12.20;78.93;101145.47;5056300;28;20492;-77
2021/11/06 11:16:59;;;;;;;2.90;0.57;;;;;;;12.26;78.72;101148.84;5055098;28;20033;-78
2021/11/06 11:19:47;;;;;;;4.70;0.95;;;;;;;12.32;78.31;101160.53;5036044;28;20055;-78
2021/11/06 11:22:31;;;;;;;1.58;0.40;;;;;;;12.35;78.24;101166.22;5052996;28;20037;-78
2021/11/06 11:24:58;;;;;;;5.07;0.60;;;;;;;12.36;78.74;101156.72;5059209;28;20120;-78
2021/11/06 11:27:43;;;;;;;2.53;0.70;;;;;;;12.37;78.42;101147.22;5058253;28;20110;-79
2021/11/06 11:30:12;;;;;;;7.05;0.60;;;;;;;12.37;78.77;101158.34;5036035;28;20382;-78
2021/11/06 11:32:39;;;;;;;2.22;0.95;;;;;;;12.40;79.41;101165.97;5051824;28;20045;-78
2021/11/06 11:35:06;;;;;;;7.97;1.40;;;;;;;12.38;79.94;101165.50;5043392;28;20088;-78
2021/11/06 11:37:34;;;;;;;2.00;0.47;;;;;;;12.33;80.52;101162.16;5048036;28;20048;-78